Main page
METAR-TAF:

METAR-TAF

Airports :

Heimdal, Norway

Oil platform

latitude: 59-34-12N, longitude: 2-13-48E, elevation: 10 m

Current weather observation

The report was made 23 minutes ago, at 01:50 UTC
Wind 15 kt from the North/Northeast
Temperature 12°C
Humidity 94%
Pressure 1005 hPa
Visibility 10 km or more

METAR: ENHM 290150Z AUTO 03015KT 9999NDV FEW072/// 12/11 Q1005 W12/S4

Time: 04:13 (02:13 UTC)

Forecast

The report was made 12 hours and 49 minutes ago, at 13:24 UTC
Forecast valid from 28 at 13 UTC to 28 at 17 UTC
Wind 7 kt from the Northeast
Visibility 10 km or more
Few clouds at a height of 1000 ft

TAF: ENHM 281324Z 2813/2817 05007KT 9999 FEW010

Weather observations and forecasts of more than 4000 airports (METAR and TAF reports).

The available stations are represented by yellow and red dots on the map.

Hover mouse over dot to see the name of the station.

Then click to see weather observations and forecasts.

To change the map : click on the green buttons with a black cross to zoom in, on the green button with a dash to zoom out, or on the green arrows for adjacent maps.


METAR-TAF: